Latest Weather Observations for Double Island Point

IDQ60801

Issued at 12:32 pm EST Monday 26 August 2019 (issued every 10 minutes, with the page automatically refreshed every 10 minutes)

About weather observations | Map of weather stations | Latest weather observations for QLD | Other Formats
Station Details ID: 040068 Name: DOUBLE ISLAND POINT LIGHTHOUSE Lat: -25.93 Lon: 153.19 Height: 95.64 m
Data from the previous 72 hours. | See also: Recent months at Double Island Point
Date/Time
EST
Temp
°C
App
Temp
°C
Dew
Point
°C
Rel
Hum
%
Delta-T
°C
Wind Press
QNH
hPa
Press
MSL
hPa
Rain since
9am
mm
Dir  Spd
km/h
Gust
km/h
Spd
kts
Gust
kts
26/12:30pm 24.9 25.4 16.6 60 5.1 NE 9 13 5 7 1018.1 1017.9 0.0
26/12:00pm 24.5 25.1 16.7 61 4.8 NNE 9 15 5 8 1018.6 1018.4 0.0
26/11:30am 24.8 25.3 14.9 54 5.9 N 6 9 3 5 1019.0 1018.8 0.0
26/11:00am 24.0 24.0 16.3 62 4.7 NNW 11 17 6 9 1019.5 1019.3 0.0
26/10:30am 22.7 21.8 15.8 65 4.2 NNW 15 22 8 12 1019.7 1019.5 0.0
26/10:00am 21.6 20.0 15.0 66 3.9 NW 17 24 9 13 1019.9 1019.7 0.0
26/09:30am 20.3 17.1 14.2 68 3.6 NW 24 28 13 15 1020.0 1019.8 0.0
26/09:00am 19.6 17.2 14.4 72 3.0 NW 20 26 11 14 1020.1 1019.9 0.0
26/08:30am 18.8 16.4 14.3 75 2.6 WNW 20 26 11 14 1020.1 1019.9 0.0
26/08:00am 17.8 15.0 14.3 80 2.0 WNW 22 28 12 15 1019.9 1019.7 0.0
26/07:30am 16.8 13.7 14.4 86 1.4 WNW 24 30 13 16 1019.5 1019.3 0.0
26/07:00am 16.7 13.8 15.2 91 0.9 WNW 24 32 13 17 1019.1 1018.9 0.0
26/06:30am 16.5 13.6 15.2 92 0.8 NW 24 28 13 15 1018.7 1018.5 0.0
26/06:00am 16.3 13.7 14.8 91 0.9 NW 22 26 12 14 1018.7 1018.5 0.0
26/05:30am 16.3 13.6 14.7 90 0.9 NW 22 26 12 14 1018.3 1018.1 0.0
26/05:00am 16.4 14.2 14.8 90 0.9 NW 20 26 11 14 1017.8 1017.6 0.0
26/04:30am 16.6 14.1 15.1 91 0.9 NW 22 26 12 14 1017.7 1017.5 0.0
26/04:00am 16.6 14.1 15.1 91 0.9 NW 22 26 12 14 1017.6 1017.4 0.0
26/03:30am 16.5 14.3 14.9 90 0.9 NW 20 24 11 13 1017.6 1017.4 0.0
26/03:00am 16.4 13.7 14.6 89 1.0 NW 22 26 12 14 1017.6 1017.4 0.0
26/02:30am 16.2 13.7 14.2 88 1.1 NW 20 26 11 14 1017.8 1017.6 0.0
26/02:00am 16.2 13.6 13.9 86 1.3 NW 20 22 11 12 1018.0 1017.8 0.0
26/01:30am 16.3 13.7 13.8 85 1.4 NNW 20 22 11 12 1018.2 1018.0 0.0
26/01:00am 16.6 14.0 13.7 83 1.6 NW 20 24 11 13 1018.5 1018.3 0.0
26/12:30am 16.7 14.0 13.6 82 1.8 NW 20 24 11 13 1018.8 1018.6 0.0
26/12:00am 16.8 14.1 13.5 81 1.9 NW 20 24 11 13 1018.9 1018.7 0.0
 
Date/Time
EST
Temp
°C
App
Temp
°C
Dew
Point
°C
Rel
Hum
%
Delta-T
°C
Wind Press
QNH
hPa
Press
MSL
hPa
Rain since
9am
mm
Dir  Spd
km/h
Gust
km/h
Spd
kts
Gust
kts
25/11:30pm 16.9 13.8 13.4 80 2.0 NNW 22 28 12 15 1018.8 1018.6 0.0
25/11:00pm 17.5 14.5 13.8 79 2.1 NNW 22 26 12 14 1018.9 1018.7 0.0
25/10:30pm 17.6 14.5 13.5 77 2.3 NNW 22 28 12 15 1018.9 1018.7 0.0
25/10:00pm 17.7 15.3 14.4 81 1.9 NNW 20 26 11 14 1019.1 1018.9 0.0
25/09:30pm 18.3 18.3 13.6 74 2.7 N 6 9 3 5 1019.2 1019.0 0.0
25/09:00pm 18.3 18.4 12.7 70 3.1 N 4 7 2 4 1019.2 1019.0 0.0
25/08:30pm 18.4 16.9 13.1 71 3.0 NNE 13 26 7 14 1019.0 1018.8 0.0
25/08:00pm 18.6 16.0 13.9 74 2.7 NNE 20 30 11 16 1018.9 1018.7 0.0
25/07:30pm 18.6 15.5 13.5 72 2.9 NNE 22 26 12 14 1019.0 1018.8 0.0
25/07:00pm 18.5 15.5 12.7 69 3.3 NNE 20 26 11 14 1018.7 1018.5 0.0
25/06:30pm 18.6 15.8 12.6 68 3.4 NNE 19 24 10 13 1018.4 1018.2 0.0
25/06:00pm 18.7 15.5 12.0 65 3.7 NNE 20 28 11 15 1018.3 1018.1 0.0
25/05:30pm 19.2 15.0 11.0 59 4.5 NNE 24 28 13 15 1017.9 1017.7 0.0
25/05:00pm 20.5 17.2 10.9 54 5.3 NNE 19 26 10 14 1017.9 1017.7 0.0
25/04:30pm 21.4 19.8 11.4 53 5.6 NE 11 19 6 10 1017.7 1017.5 0.0
25/04:00pm 22.3 20.6 11.1 49 6.2 NE 11 17 6 9 1017.6 1017.4 0.0
25/03:30pm 23.1 21.0 11.2 47 6.7 NNE 13 20 7 11 1017.4 1017.2 0.0
25/03:00pm 23.7 20.6 10.4 43 7.4 NNE 17 20 9 11 1017.7 1017.5 0.0
25/02:30pm 24.8 22.5 11.7 44 7.5 NNE 15 19 8 10 1017.9 1017.7 0.0
25/02:00pm 25.0 23.1 11.9 44 7.5 NNE 13 17 7 9 1018.1 1017.9 0.0
25/01:30pm 24.6 22.0 10.8 42 7.7 NNE 15 19 8 10 1018.3 1018.1 0.0
25/01:00pm 24.5 21.7 10.0 40 8.0 NNE 15 19 8 10 1018.5 1018.3 0.0
25/12:30pm 24.1 22.8 9.3 39 8.1 NNW 6 9 3 5 1019.1 1018.9 0.0
25/12:00pm 24.0 22.9 10.7 43 7.4 NNW 7 13 4 7 1019.7 1019.5 0.0
25/11:30am 23.3 21.5 11.0 46 6.9 NNW 11 17 6 9 1020.3 1020.1 0.0
25/11:00am 23.1 21.6 11.8 49 6.4 NNW 11 17 6 9 1020.6 1020.4 0.0
25/10:30am 21.7 19.3 12.5 56 5.2 NNW 17 22 9 12 1021.1 1020.9 0.0
25/10:00am 20.9 18.0 12.3 58 4.8 NW 19 22 10 12 1021.4 1021.2 0.0
25/09:30am 19.6 16.9 11.6 60 4.4 NW 17 24 9 13 1021.5 1021.3 0.0
25/09:00am 19.1 17.2 11.9 63 4.0 WNW 13 19 7 10 1021.6 1021.4 0.0
25/08:30am 18.5 16.3 12.0 66 3.6 WNW 15 19 8 10 1021.7 1021.5 0.0
25/08:00am 17.8 15.6 12.0 69 3.2 WNW 15 20 8 11 1021.6 1021.4 0.0
25/07:30am 17.1 14.5 12.0 72 2.8 WNW 17 19 9 10 1021.4 1021.2 0.0
25/07:00am 16.4 13.4 12.0 75 2.4 WNW 19 20 10 11 1020.9 1020.7 0.0
25/06:30am 16.0 13.1 12.2 78 2.1 WNW 19 20 10 11 1020.5 1020.3 0.0
25/06:00am 15.6 12.7 12.2 80 1.9 WNW 19 20 10 11 1020.3 1020.1 0.0
25/05:30am 15.6 12.7 12.2 80 1.9 WNW 19 20 10 11 1020.1 1019.9 0.0
25/05:00am 16.1 13.7 12.7 80 1.9 NW 17 20 9 11 1020.0 1019.8 0.0
25/04:30am 16.2 14.6 12.9 81 1.8 NNW 13 15 7 8 1020.1 1019.9 0.0
25/04:00am 16.0 14.3 12.4 79 2.0 NNW 13 15 7 8 1020.0 1019.8 0.0
25/03:30am 15.9 13.7 12.1 78 2.1 NW 15 17 8 9 1020.1 1019.9 0.0
25/03:00am 15.8 14.3 12.0 78 2.1 WNW 11 13 6 7 1020.3 1020.1 0.0
25/02:30am 16.2 14.1 12.4 78 2.1 NW 15 17 8 9 1020.6 1020.4 0.0
25/02:00am 16.6 15.1 13.1 80 2.0 NNW 13 15 7 8 1020.7 1020.5 0.0
25/01:30am 16.9 15.2 12.6 76 2.4 NNW 13 17 7 9 1021.0 1020.8 0.0
25/01:00am 17.1 16.3 11.6 70 3.0 NNE 7 13 4 7 1021.3 1021.1 0.0
25/12:30am 17.0 14.9 11.3 69 3.1 NNE 13 19 7 10 1021.5 1021.3 0.0
25/12:00am 17.1 14.6 12.2 73 2.7 NNE 17 22 9 12 1021.6 1021.4 0.0
 
Date/Time
EST
Temp
°C
App
Temp
°C
Dew
Point
°C
Rel
Hum
%
Delta-T
°C
Wind Press
QNH
hPa
Press
MSL
hPa
Rain since
9am
mm
Dir  Spd
km/h
Gust
km/h
Spd
kts
Gust
kts
24/11:30pm 17.2 14.6 12.1 72 2.8 NNE 17 24 9 13 1021.7 1021.5 0.0
24/11:00pm 17.2 15.1 12.5 74 2.6 NE 15 22 8 12 1021.7 1021.5 0.0
24/10:30pm 17.4 15.4 12.7 74 2.6 NNE 15 22 8 12 1022.0 1021.8 0.0
24/10:00pm 17.5 15.1 12.6 73 2.7 NNE 17 24 9 13 1022.0 1021.8 0.0
24/09:30pm 17.8 15.7 12.3 70 3.1 NE 15 22 8 12 1022.0 1021.8 0.0
24/09:00pm 17.4 14.9 11.2 67 3.4 NNE 15 20 8 11 1022.1 1021.9 0.0
24/08:30pm 17.4 14.7 10.5 64 3.7 NNE 15 20 8 11 1022.2 1022.0 0.0
24/08:00pm 17.3 14.9 11.3 68 3.3 NE 15 20 8 11 1022.1 1021.9 0.0
24/07:30pm 17.4 16.1 11.4 68 3.3 ENE 9 15 5 8 1022.1 1021.9 0.0
24/07:00pm 17.6 15.2 11.4 67 3.4 ENE 15 19 8 10 1022.1 1021.9 0.0
24/06:30pm 17.8 14.8 12.0 69 3.2 E 19 22 10 12 1021.9 1021.7 0.0
24/06:00pm 17.7 14.6 11.7 68 3.3 E 19 24 10 13 1021.7 1021.5 0.0
24/05:30pm 17.8 14.5 11.6 67 3.4 E 20 22 11 12 1021.7 1021.5 0.0
24/05:00pm 18.4 15.3 11.5 64 3.8 E 19 20 10 11 1021.5 1021.3 0.0
24/04:30pm 18.7 15.5 11.3 62 4.1 ESE 19 22 10 12 1021.4 1021.2 0.0
24/04:00pm 18.7 16.1 10.8 60 4.3 ESE 15 17 8 9 1021.5 1021.3 0.0
24/03:30pm 19.3 17.2 11.1 59 4.5 ESE 13 17 7 9 1021.6 1021.4 0.0
24/03:00pm 19.3 16.7 10.8 58 4.6 SE 15 20 8 11 1021.6 1021.4 0.0
24/02:30pm 20.2 17.9 11.9 59 4.6 ESE 15 19 8 10 1021.7 1021.5 0.0
24/02:00pm 20.0 16.6 10.4 54 5.2 ESE 19 24 10 13 1021.8 1021.6 0.0
24/01:30pm 20.9 18.1 11.5 55 5.2 ESE 17 20 9 11 1022.3 1022.1 0.0
24/01:00pm 20.1 17.1 10.5 54 5.2 ESE 17 22 9 12 1022.6 1022.5 0.0
24/12:30pm 20.7 16.1 11.1 54 5.3 ESE 26 30 14 16 1022.9 1022.8 0.0
24/12:00pm 20.7 15.9 11.6 56 5.0 ESE 28 33 15 18 1023.5 1023.4 0.0
24/11:30am 20.4 15.2 10.2 52 5.5 ESE 28 32 15 17 1023.9 1023.8 0.0
24/11:00am 20.1 15.8 10.8 55 5.1 ESE 24 32 13 17 1024.5 1024.3 0.0
24/10:30am 19.4 15.0 10.4 56 4.9 SE 24 32 13 17 1024.8 1024.6 0.0
24/10:00am 19.1 13.8 9.9 55 4.9 SE 28 33 15 18 1025.0 1024.8 0.0
24/09:30am 18.9 13.4 10.5 58 4.5 SE 30 35 16 19 1025.0 1024.8 0.0
24/09:00am 18.7 12.3 10.8 60 4.3 SE 35 41 19 22 1024.9 1024.7 0.0
24/08:30am 18.5 12.1 10.6 60 4.3 SE 35 41 19 22 1024.8 1024.6 0.0
24/08:00am 18.7 11.9 10.5 59 4.4 SE 37 43 20 23 1024.5 1024.3 0.0
24/07:30am 18.5 12.2 9.8 57 4.6 SE 33 41 18 22 1024.2 1024.1 0.0
24/07:00am 18.4 12.1 11.2 63 3.9 SE 35 43 19 23 1023.8 1023.7 0.0
24/06:30am 18.0 12.0 12.0 68 3.3 SSE 35 41 19 22 1023.6 1023.5 0.0
24/06:00am 17.9 11.5 12.1 69 3.2 SSE 37 43 20 23 1023.4 1023.3 0.0
24/05:30am 17.6 11.8 12.7 73 2.7 SE 35 41 19 22 1023.2 1023.1 0.0
24/05:00am 17.7 11.6 11.9 69 3.2 SSE 35 41 19 22 1022.9 1022.8 0.0
24/04:30am 17.7 11.5 11.3 66 3.5 SE 35 41 19 22 1022.8 1022.7 0.0
24/04:00am 17.6 11.6 10.7 64 3.7 SE 33 41 18 22 1022.7 1022.6 0.0
24/03:30am 17.6 10.9 10.9 65 3.6 SE 37 41 20 22 1022.6 1022.5 0.0
24/03:00am 17.6 11.1 11.6 68 3.3 SE 37 43 20 23 1022.7 1022.6 0.0
24/02:30am 17.6 11.4 11.4 67 3.4 SE 35 41 19 22 1022.8 1022.7 0.0
24/02:00am 17.7 11.7 12.2 70 3.0 SE 35 41 19 22 1022.9 1022.8 0.0
24/01:30am 17.7 11.0 12.2 70 3.0 SE 39 44 21 24 1023.1 1023.0 0.0
24/01:00am 17.7 10.9 11.9 69 3.2 SE 39 44 21 24 1023.3 1023.2 0.0
24/12:30am 17.7 11.6 11.9 69 3.2 SE 35 41 19 22 1023.4 1023.3 0.0
24/12:00am 17.8 10.9 11.6 67 3.4 SE 39 48 21 26 1023.6 1023.5 0.0
 
Date/Time
EST
Temp
°C
App
Temp
°C
Dew
Point
°C
Rel
Hum
%
Delta-T
°C
Wind Press
QNH
hPa
Press
MSL
hPa
Rain since
9am
mm
Dir  Spd
km/h
Gust
km/h
Spd
kts
Gust
kts
23/11:30pm 17.7 10.8 11.7 68 3.3 SE 39 44 21 24 1023.8 1023.7 0.0
23/11:00pm 17.8 10.9 12.7 72 2.8 SE 41 46 22 25 1023.9 1023.8 0.0
23/10:30pm 17.7 11.1 12.6 72 2.8 SE 39 46 21 25 1024.1 1024.0 0.0
23/10:00pm 17.7 10.7 12.6 72 2.8 SE 41 46 22 25 1024.5 1024.3 0.0
23/09:30pm 17.6 10.6 12.5 72 2.8 SE 41 48 22 26 1024.4 1024.2 0.0
23/09:00pm 17.6 11.1 12.9 74 2.6 SE 39 46 21 25 1024.5 1024.3 0.0
23/08:30pm 17.4 10.5 12.7 74 2.6 SE 41 50 22 27 1024.4 1024.2 0.0
23/08:00pm 17.4 10.6 13.1 76 2.4 SE 41 46 22 25 1024.2 1024.1 0.0
23/07:30pm 17.4 10.0 12.5 73 2.7 SE 43 50 23 27 1024.2 1024.1 0.0
23/07:00pm 17.4 10.8 12.7 74 2.6 SE 39 48 21 26 1023.9 1023.8 0.0
23/06:30pm 17.3 9.5 11.3 68 3.3 SE 43 48 23 26 1023.6 1023.5 0.0
23/06:00pm 17.3 9.8 12.0 71 2.9 SE 43 50 23 27 1023.3 1023.2 0.0
23/05:30pm 17.4 10.8 12.5 73 2.7 SE 39 44 21 24 1023.4 1023.3 0.0
23/05:00pm 17.4 9.8 11.9 70 3.0 SE 43 46 23 25 1023.2 1023.1 0.0
23/04:30pm 17.3 9.5 11.1 67 3.4 SSE 43 50 23 27 1023.0 1022.9 0.0
23/04:00pm 17.5 9.7 11.1 66 3.5 SSE 43 50 23 27 1022.7 1022.6 0.0
23/03:30pm 17.6 10.1 10.9 65 3.6 SSE 41 46 22 25 1022.4 1022.2 0.0
23/03:00pm 17.7 9.5 10.3 62 3.9 SSE 44 50 24 27 1022.2 1022.0 0.0
23/02:30pm 17.9 9.8 10.8 63 3.8 SSE 44 52 24 28 1022.1 1021.9 0.0
23/02:00pm 18.0 9.9 10.9 63 3.8 SSE 44 52 24 28 1022.1 1021.9 0.0
23/01:30pm 17.8 10.1 11.4 66 3.5 SSE 43 52 23 28 1022.3 1022.1 0.0
23/01:00pm 17.8 9.7 10.9 64 3.7 SSE 44 52 24 28 1022.5 1022.3 0.0

Other formats

Comma delimited format used in spreadsheet applications
http://www.bom.gov.au/fwo/IDQ60801/IDQ60801.94584.axf

JavaScript Object Notation format (JSON) in row-major order
http://www.bom.gov.au/fwo/IDQ60801/IDQ60801.94584.json

Data quality

Most of these data are generated automatically and are frequently updated. Quality checks on data are not normally performed. It is possible for incorrect values to appear. Refer to information at About Latest Weather Observations and please check the disclaimer before using these data.